Time;durP1;ratioP1;P1;durP2;ratioP2;P2;SDS_P1;SDS_P2;PMS_P1;PMS_P2;Temp;Humidity;BMP_temperature;BMP_pressure;BME280_temperature;BME280_humidity;BME280_pressure;Samples;Min_cycle;Max_cycle;Signal;HPM_P1;HPM_P2
2021/10/08 00:01:49;;;;;;;31.77;19.57;;;;;;;7.53;83.70;101336.17;1660375;85;21068;-67
2021/10/08 00:04:16;;;;;;;35.50;19.37;;;;;;;7.46;83.71;101331.92;1638880;86;20914;-67
2021/10/08 00:06:43;;;;;;;27.30;17.07;;;;;;;7.40;83.78;101333.70;1656137;85;20900;-66
2021/10/08 00:09:10;;;;;;;27.50;18.20;;;;;;;7.34;83.84;101333.75;1635264;86;20988;-66
2021/10/08 00:11:36;;;;;;;30.02;18.67;;;;;;;7.31;83.91;101337.67;1642629;86;21508;-66
2021/10/08 00:14:03;;;;;;;33.13;18.33;;;;;;;7.28;83.92;101333.81;1634468;86;21055;-67
2021/10/08 00:16:30;;;;;;;31.62;17.85;;;;;;;7.25;83.93;101336.40;1664571;85;21044;-67
2021/10/08 00:18:57;;;;;;;31.07;17.25;;;;;;;7.23;83.95;101335.58;1635195;86;21101;-66
2021/10/08 00:21:24;;;;;;;32.03;17.92;;;;;;;7.19;83.91;101340.35;1643349;84;21128;-67
2021/10/08 00:23:51;;;;;;;27.45;18.95;;;;;;;7.15;83.94;101332.17;1634142;87;21711;-67
2021/10/08 00:26:18;;;;;;;32.38;22.10;;;;;;;7.10;83.93;101331.34;1633701;87;21117;-66
2021/10/08 00:28:45;;;;;;;;;;;;;;;7.04;83.96;101324.45;1618451;87;20996;-66
2021/10/08 00:31:12;;;;;;;31.10;17.93;;;;;;;7.00;84.07;101333.56;1650336;86;20099;-67
2021/10/08 00:33:39;;;;;;;25.05;17.32;;;;;;;6.94;84.04;101331.42;1639652;86;20969;-67
2021/10/08 00:36:06;;;;;;;27.47;17.83;;;;;;;6.90;84.07;101337.52;1630069;86;20961;-66
2021/10/08 00:38:32;;;;;;;23.20;16.60;;;;;;;6.87;84.07;101340.14;1644031;86;21046;-66
2021/10/08 00:40:59;;;;;;;23.98;15.23;;;;;;;6.87;84.07;101342.74;1635273;87;21041;-67
2021/10/08 00:43:26;;;;;;;25.20;15.80;;;;;;;6.86;84.10;101350.53;1659936;84;21613;-67
2021/10/08 00:45:53;;;;;;;29.00;15.75;;;;;;;6.84;84.12;101342.77;1634130;86;21497;-67
2021/10/08 00:48:20;;;;;;;30.43;16.73;;;;;;;6.84;84.08;101347.95;1646696;86;20891;-67
2021/10/08 00:50:51;;;;;;;22.67;16.17;;;;;;;6.80;84.06;101351.42;1634690;86;21520;-66
2021/10/08 00:53:19;;;;;;;29.00;16.60;;;;;;;6.76;84.05;101344.54;1636059;87;20950;-66
2021/10/08 00:55:49;;;;;;;24.92;16.65;;;;;;;6.72;84.02;101342.81;1661007;84;20927;-66
2021/10/08 00:58:19;;;;;;;28.10;15.58;;;;;;;6.71;84.12;101348.89;1661967;83;21044;-66
2021/10/08 01:00:50;;;;;;;32.93;16.82;;;;;;;6.69;84.09;101345.43;1665637;83;20885;-66
2021/10/08 01:03:19;;;;;;;31.80;16.93;;;;;;;6.67;84.17;101345.90;1645736;85;21060;-66
2021/10/08 01:05:46;;;;;;;26.85;17.57;;;;;;;6.65;84.14;101343.73;1649338;86;20950;-67
2021/10/08 01:08:13;;;;;;;28.55;17.30;;;;;;;6.62;84.11;101339.86;1633736;87;20982;-66
2021/10/08 01:10:42;;;;;;;27.32;16.60;;;;;;;6.58;84.13;101342.03;1643612;83;20930;-66
2021/10/08 01:13:11;;;;;;;21.87;14.28;;;;;;;6.56;84.17;101338.60;1671042;84;21498;-66
2021/10/08 01:15:39;;;;;;;26.00;15.13;;;;;;;6.54;84.23;101337.73;1652445;85;21419;-66
2021/10/08 01:18:06;;;;;;;23.20;15.58;;;;;;;6.50;84.28;101335.16;1667975;85;21079;-66
2021/10/08 01:20:34;;;;;;;22.40;15.30;;;;;;;6.47;84.28;101332.58;1652090;85;21128;-65
2021/10/08 01:23:01;;;;;;;27.95;16.70;;;;;;;6.46;84.31;101339.92;1666397;84;21454;-66
2021/10/08 01:25:32;;;;;;;;;;;;;;;6.43;84.27;101341.23;1680092;85;20990;-66
2021/10/08 01:28:00;;;;;;;24.82;15.00;;;;;;;6.42;84.29;101342.11;1649830;85;21359;-66
2021/10/08 01:30:28;;;;;;;24.55;15.85;;;;;;;6.40;84.35;101343.84;1663788;84;20946;-66
2021/10/08 01:32:55;;;;;;;22.80;15.68;;;;;;;6.38;84.31;101348.17;1629343;85;20986;-66
2021/10/08 01:35:23;;;;;;;24.32;14.98;;;;;;;6.36;84.33;101349.93;1662833;85;20983;-66
2021/10/08 01:37:50;;;;;;;30.82;15.13;;;;;;;6.38;84.33;101342.98;1635092;86;21089;-66
2021/10/08 01:40:18;;;;;;;22.95;14.40;;;;;;;6.40;84.31;101342.55;1675902;84;21741;-66
2021/10/08 01:42:45;;;;;;;25.55;15.80;;;;;;;6.41;84.29;101348.19;1668486;84;21424;-66
2021/10/08 01:45:14;;;;;;;31.57;15.65;;;;;;;6.41;84.26;101350.78;1649285;85;21011;-66
2021/10/08 01:47:41;;;;;;;25.12;15.95;;;;;;;6.41;84.26;101350.78;1651349;86;20930;-66
2021/10/08 01:50:09;;;;;;;26.95;14.15;;;;;;;6.41;84.26;101352.48;1667922;84;20958;-67
2021/10/08 01:52:36;;;;;;;18.02;13.90;;;;;;;6.39;84.20;101351.66;1622543;87;21073;-66
2021/10/08 01:55:04;;;;;;;23.93;14.73;;;;;;;6.34;84.21;101358.14;1637811;86;20990;-66
2021/10/08 01:57:31;;;;;;;19.75;15.08;;;;;;;6.37;84.36;101349.05;1652612;86;20995;-67
2021/10/08 01:59:58;;;;;;;25.57;14.25;;;;;;;6.36;84.24;101348.63;1650499;85;20914;-66
2021/10/08 02:02:25;;;;;;;29.92;13.60;;;;;;;6.33;84.24;101342.16;1666585;84;20902;-66
2021/10/08 02:04:52;;;;;;;27.00;15.38;;;;;;;6.32;84.22;101345.60;1612903;87;21069;-66
2021/10/08 02:07:19;;;;;;;25.33;13.63;;;;;;;6.28;84.18;101349.09;1625569;86;20970;-66
2021/10/08 02:09:46;;;;;;;26.05;15.60;;;;;;;6.24;84.17;101347.36;1624909;85;20979;-66
2021/10/08 02:12:13;;;;;;;22.73;14.43;;;;;;;6.19;84.16;101346.51;1640675;86;21041;-66
2021/10/08 02:14:40;;;;;;;22.32;14.43;;;;;;;6.16;84.20;101337.44;1669687;84;21008;-66
2021/10/08 02:17:06;;;;;;;31.45;15.63;;;;;;;6.14;84.16;101343.09;1672611;85;21110;-66
2021/10/08 02:19:33;;;;;;;28.20;15.13;;;;;;;6.12;84.20;101345.67;1667574;84;20951;-66
2021/10/08 02:22:02;;;;;;;30.57;14.87;;;;;;;6.11;84.19;101348.29;1650106;85;20938;-66
2021/10/08 02:24:29;;;;;;;28.42;13.58;;;;;;;6.08;84.21;101348.27;1633034;87;20970;-66
2021/10/08 02:26:57;;;;;;;28.02;14.35;;;;;;;6.05;84.18;101355.22;1667017;83;20949;-66
2021/10/08 02:29:25;;;;;;;24.30;14.70;;;;;;;6.03;84.17;101351.75;1654154;85;21173;-66
2021/10/08 02:31:53;;;;;;;27.42;14.63;;;;;;;6.01;84.24;101356.07;1638915;86;21476;-66
2021/10/08 02:34:20;;;;;;;30.75;15.35;;;;;;;5.99;84.21;101368.20;1656061;85;21526;-66
2021/10/08 02:36:46;;;;;;;27.58;14.15;;;;;;;5.96;84.19;101362.99;1657148;85;21017;-67
2021/10/08 02:39:13;;;;;;;29.12;15.03;;;;;;;5.91;84.17;101369.91;1627851;86;20996;-67
2021/10/08 02:41:39;;;;;;;28.07;15.70;;;;;;;5.86;84.19;101366.45;1660978;85;21063;-66
2021/10/08 02:44:06;;;;;;;24.15;14.10;;;;;;;5.83;84.20;101377.69;1657600;85;21185;-66
2021/10/08 02:46:33;;;;;;;24.75;14.23;;;;;;;5.77;84.14;101371.63;1672217;84;21484;-66
2021/10/08 02:49:00;;;;;;;22.10;15.13;;;;;;;5.68;84.15;101370.34;1667635;83;21042;-66
2021/10/08 02:51:27;;;;;;;22.63;13.40;;;;;;;5.61;84.17;101370.80;1649810;84;21018;-66
2021/10/08 02:53:54;;;;;;;22.15;14.15;;;;;;;5.57;84.27;101377.72;1662103;85;21561;-66
2021/10/08 02:56:21;;;;;;;29.67;15.23;;;;;;;5.54;84.31;101382.02;1666045;85;20922;-66
2021/10/08 02:58:48;;;;;;;30.25;13.98;;;;;;;5.53;84.39;101380.30;1664455;85;21036;-66
2021/10/08 03:01:15;;;;;;;30.72;13.72;;;;;;;5.51;84.38;101382.87;1652086;85;21453;-66
2021/10/08 03:03:41;;;;;;;25.88;15.05;;;;;;;5.50;84.39;101378.57;1638316;86;20970;-66
2021/10/08 03:06:08;;;;;;;24.35;13.58;;;;;;;5.49;84.37;101384.62;1667009;84;21881;-66
2021/10/08 03:08:35;;;;;;;26.33;13.62;;;;;;;5.45;84.35;101377.70;1636654;86;20895;-66
2021/10/08 03:11:02;;;;;;;35.80;13.00;;;;;;;5.44;84.40;101388.94;1664053;85;21027;-67
2021/10/08 03:13:28;;;;;;;29.40;13.10;;;;;;;5.42;84.42;101393.24;1636576;86;20939;-66
2021/10/08 03:15:55;;;;;;;24.15;14.03;;;;;;;5.38;84.37;101387.20;1665993;84;20942;-66
2021/10/08 03:18:22;;;;;;;29.20;13.57;;;;;;;5.36;84.37;101395.84;1654346;85;21977;-66
2021/10/08 03:20:49;;;;;;;32.42;13.53;;;;;;;5.35;84.44;101400.59;1651137;85;21747;-67
2021/10/08 03:23:15;;;;;;;25.70;13.53;;;;;;;5.34;84.44;101405.32;1631186;86;20926;-66
2021/10/08 03:25:42;;;;;;;31.23;14.25;;;;;;;5.34;84.48;101400.14;1669015;84;20887;-66
2021/10/08 03:28:10;;;;;;;25.13;13.93;;;;;;;5.37;84.53;101404.03;1638489;86;21059;-66
2021/10/08 03:30:36;;;;;;;29.12;13.60;;;;;;;5.42;84.55;101403.61;1656922;85;21107;-67
2021/10/08 03:33:03;;;;;;;31.30;13.55;;;;;;;5.48;84.57;101408.78;1672690;85;21013;-66
2021/10/08 03:35:29;;;;;;;26.62;12.75;;;;;;;5.54;84.58;101406.19;1670547;84;21533;-66
2021/10/08 03:38:05;;;;;;;28.98;12.58;;;;;;;5.56;84.49;101404.47;1666533;85;20950;-66
2021/10/08 03:40:29;;;;;;;28.20;12.82;;;;;;;5.59;84.44;101408.80;1632626;86;21036;-66
2021/10/08 03:42:59;;;;;;;32.75;12.90;;;;;;;5.59;84.39;101401.88;1668825;85;21077;-66
2021/10/08 03:45:30;;;;;;;24.70;12.73;;;;;;;5.58;84.29;101405.34;1659968;85;20907;-66
2021/10/08 03:50:23;;;;;;;26.37;11.83;;;;;;;5.51;84.22;101411.38;1669379;85;20917;-66
2021/10/08 03:52:50;;;;;;;23.00;11.47;;;;;;;5.44;84.18;101409.66;1661051;85;20965;-66
2021/10/08 03:55:17;;;;;;;23.32;12.15;;;;;;;5.35;84.04;101409.66;1670541;84;21104;-66
2021/10/08 03:57:44;;;;;;;26.48;11.88;;;;;;;5.21;83.94;101415.22;1676165;84;20965;-67
2021/10/08 04:00:11;;;;;;;21.55;12.00;;;;;;;5.02;83.85;101413.91;1644948;84;21456;-65
2021/10/08 04:02:38;;;;;;;21.57;11.50;;;;;;;4.88;83.94;101411.71;1666735;85;20966;-66
2021/10/08 04:05:05;;;;;;;20.50;12.37;;;;;;;4.76;84.07;101419.41;1664903;85;20938;-67
2021/10/08 04:07:34;;;;;;;20.92;13.25;;;;;;;4.67;84.22;101421.53;1654542;85;21468;-67
2021/10/08 04:10:01;;;;;;;27.93;12.68;;;;;;;4.63;84.31;101424.55;1636190;86;21061;-67
2021/10/08 04:12:27;;;;;;;25.08;12.07;;;;;;;4.60;84.39;101419.37;1634716;86;21093;-67
2021/10/08 04:14:54;;;;;;;29.23;13.90;;;;;;;4.58;84.50;101423.66;1667235;84;21079;-66
2021/10/08 04:17:21;;;;;;;55.60;14.30;;;;;;;4.55;84.49;101426.23;1666500;84;20968;-66
2021/10/08 04:19:47;;;;;;;41.00;12.20;;;;;;;4.53;84.59;101429.23;1670082;84;21513;-67
2021/10/08 04:22:14;;;;;;;22.50;12.40;;;;;;;4.53;84.68;101429.23;1670054;84;20938;-67
2021/10/08 04:24:40;;;;;;;25.30;11.60;;;;;;;4.54;84.73;101428.40;1672223;85;21017;-66
2021/10/08 04:27:07;;;;;;;26.80;12.10;;;;;;;4.54;84.75;101425.81;1663302;85;20990;-67
2021/10/08 04:29:34;;;;;;;25.17;12.03;;;;;;;4.53;84.72;101425.36;1668142;84;21069;-67
2021/10/08 04:32:00;;;;;;;37.45;13.78;;;;;;;4.54;84.73;101436.16;1667850;84;21164;-67
2021/10/08 04:34:27;;;;;;;37.23;11.67;;;;;;;4.55;84.72;101437.02;1671090;84;21561;-67
2021/10/08 04:36:54;;;;;;;30.35;12.88;;;;;;;4.55;84.75;101436.58;1667547;84;21524;-67
2021/10/08 04:39:20;;;;;;;23.55;12.37;;;;;;;4.55;84.71;101442.20;1662822;84;20984;-67
2021/10/08 04:41:47;;;;;;;26.37;12.00;;;;;;;4.52;84.70;101443.04;1639104;86;21450;-67
2021/10/08 04:44:14;;;;;;;28.77;11.75;;;;;;;4.51;84.75;101450.37;1673869;84;21030;-67
2021/10/08 04:46:41;;;;;;;25.72;12.90;;;;;;;4.48;84.68;101454.20;1647631;86;20934;-67
2021/10/08 04:49:08;;;;;;;24.85;12.60;;;;;;;4.48;84.76;101455.50;1666453;85;20974;-67
2021/10/08 04:51:35;;;;;;;33.23;11.90;;;;;;;4.51;84.78;101460.72;1648425;84;20954;-67
2021/10/08 04:54:03;;;;;;;26.25;12.35;;;;;;;4.53;84.82;101465.45;1667197;84;20946;-67
2021/10/08 04:56:33;;;;;;;26.77;13.70;;;;;;;4.56;84.88;101466.76;1666529;84;21093;-67
2021/10/08 04:58:58;;;;;;;42.35;13.08;;;;;;;4.60;84.90;101463.34;1658355;84;21006;-67
2021/10/08 05:01:24;;;;;;;38.23;13.30;;;;;;;4.64;84.82;101474.56;1670210;84;20915;-68
2021/10/08 05:03:51;;;;;;;53.00;17.37;;;;;;;4.65;84.80;101475.89;1671863;84;20898;-68
2021/10/08 05:06:17;;;;;;;29.82;15.68;;;;;;;4.65;84.71;101470.71;1658009;85;21007;-67
2021/10/08 05:08:44;;;;;;;35.08;15.40;;;;;;;4.67;84.79;101474.15;1656278;85;21126;-67
2021/10/08 05:11:11;;;;;;;25.97;14.40;;;;;;;4.68;84.73;101481.08;1656227;85;20951;-67
2021/10/08 05:13:37;;;;;;;37.10;15.43;;;;;;;4.73;84.74;101477.63;1664166;85;21561;-67
2021/10/08 05:16:05;;;;;;;30.37;13.23;;;;;;;4.76;84.67;101485.41;1649239;85;21516;-67
2021/10/08 05:18:31;;;;;;;45.92;17.25;;;;;;;4.78;84.66;101487.58;1651780;85;26945;-67
2021/10/08 05:20:58;;;;;;;47.58;15.75;;;;;;;4.85;84.68;101485.47;1648836;86;21107;-63
2021/10/08 05:23:34;;;;;;;37.53;13.78;;;;;;;4.99;84.79;101488.98;1645145;85;21001;-62
2021/10/08 05:26:03;;;;;;;37.60;12.30;;;;;;;5.23;84.81;101487.31;1641664;85;20970;-62
2021/10/08 05:28:30;;;;;;;31.30;13.25;;;;;;;5.44;84.57;101489.97;1637223;85;21516;-63
2021/10/08 05:30:57;;;;;;;22.80;11.57;;;;;;;5.74;84.54;101501.23;1638617;86;20990;-63
2021/10/08 05:33:24;;;;;;;23.75;12.35;;;;;;;5.94;84.28;101496.12;1652730;85;21061;-63
2021/10/08 05:35:50;;;;;;;47.25;13.48;;;;;;;6.24;84.36;101495.21;1646960;85;20930;-63
2021/10/08 05:38:18;;;;;;;23.27;11.90;;;;;;;6.60;84.33;101494.72;1623806;87;20909;-63
2021/10/08 05:40:51;;;;;;;16.60;10.48;;;;;;;6.92;84.12;101494.19;1628036;87;21007;-64
2021/10/08 05:43:19;;;;;;;21.75;12.30;;;;;;;7.19;83.75;101496.22;1642219;85;21467;-63
2021/10/08 05:45:46;;;;;;;23.18;10.40;;;;;;;7.48;83.61;101496.49;1651681;85;21895;-64
2021/10/08 05:48:13;;;;;;;22.67;10.33;;;;;;;7.74;83.65;101497.20;1632679;86;20938;-63
2021/10/08 05:50:39;;;;;;;26.02;9.65;;;;;;;8.00;83.10;101494.83;1648128;85;21013;-63
2021/10/08 05:53:09;;;;;;;21.97;9.93;;;;;;;8.13;82.97;101500.36;1650654;86;21505;-63
2021/10/08 05:55:38;;;;;;;37.65;10.45;;;;;;;8.36;82.90;101500.58;1648820;86;21453;-63
2021/10/08 05:58:06;;;;;;;32.25;10.65;;;;;;;8.44;82.47;101502.70;1640455;85;21064;-63
2021/10/08 06:00:39;;;;;;;33.78;10.38;;;;;;;8.27;82.02;101498.49;1647147;86;20946;-64
2021/10/08 06:03:05;;;;;;;26.35;10.70;;;;;;;8.14;82.07;101502.07;1630267;86;21521;-65
2021/10/08 06:05:38;;;;;;;48.23;13.77;;;;;;;8.15;82.60;101509.02;1654178;86;21036;-64
2021/10/08 06:08:06;;;;;;;33.85;11.80;;;;;;;8.38;82.87;101507.95;1631626;87;20917;-64
2021/10/08 06:10:34;;;;;;;28.12;11.63;;;;;;;8.62;82.92;101516.81;1643571;86;21130;-63
2021/10/08 06:13:01;;;;;;;26.40;11.05;;;;;;;8.59;82.16;101515.55;1644733;86;23891;-63
2021/10/08 06:15:27;;;;;;;27.50;11.00;;;;;;;8.56;82.37;101516.89;1650750;85;21025;-64
2021/10/08 06:17:54;;;;;;;20.10;10.30;;;;;;;8.73;82.49;101522.77;1655179;85;20921;-65
2021/10/08 06:20:30;;;;;;;28.83;11.48;;;;;;;8.93;82.51;101511.27;1660834;85;21178;-63
2021/10/08 06:23:14;;;;;;;36.42;21.15;;;;;;;9.17;82.43;101521.84;1651800;85;20985;-63
2021/10/08 06:26:00;;;;;;;25.80;15.13;;;;;;;9.40;82.44;101518.92;1649570;85;20894;-62
2021/10/08 06:28:39;;;;;;;30.77;14.75;;;;;;;9.54;81.85;101520.89;1655180;85;21144;-62
2021/10/08 06:31:06;;;;;;;32.20;13.35;;;;;;;9.64;81.64;101522.50;1654854;85;20980;-61
2021/10/08 06:33:33;;;;;;;25.48;12.35;;;;;;;9.71;81.43;101523.70;1661335;85;20997;-62
2021/10/08 06:35:59;;;;;;;20.92;11.43;;;;;;;9.77;81.39;101530.12;1652389;85;21469;-62
2021/10/08 06:38:28;;;;;;;22.40;11.33;;;;;;;9.78;81.23;101518.83;1650704;85;21041;-62
2021/10/08 06:40:55;;;;;;;23.65;10.75;;;;;;;9.83;81.13;101528.72;1655136;85;20945;-62
2021/10/08 06:43:22;;;;;;;27.80;12.25;;;;;;;9.91;81.13;101524.25;1633820;86;21449;-62
2021/10/08 06:45:49;;;;;;;30.80;13.18;;;;;;;10.04;81.23;101527.54;1655287;85;21034;-62
2021/10/08 06:48:16;;;;;;;32.85;14.80;;;;;;;10.21;81.26;101532.48;1653419;85;21084;-64
2021/10/08 06:50:42;;;;;;;22.30;12.05;;;;;;;10.42;81.13;101529.54;1653204;85;21497;-64
2021/10/08 06:53:09;;;;;;;24.40;13.23;;;;;;;10.67;81.01;101533.88;1663474;85;20974;-64
2021/10/08 06:55:36;;;;;;;26.35;12.55;;;;;;;10.81;80.61;101537.53;1658114;85;21540;-63
2021/10/08 06:58:05;;;;;;;17.52;11.08;;;;;;;10.80;80.31;101538.41;1656890;85;20939;-64
2021/10/08 07:00:31;;;;;;;25.40;11.10;;;;;;;10.71;80.33;101538.59;1666494;85;21034;-64
2021/10/08 07:02:58;;;;;;;17.52;10.48;;;;;;;10.67;80.37;101540.41;1666589;85;21034;-64
2021/10/08 07:05:27;;;;;;;22.62;10.82;;;;;;;10.71;80.34;101541.20;1660713;85;20986;-64
2021/10/08 07:07:54;;;;;;;22.95;10.48;;;;;;;10.75;79.84;101544.16;1656624;85;20994;-64
2021/10/08 07:10:21;;;;;;;14.07;9.78;;;;;;;10.66;79.81;101543.03;1656360;85;20949;-64
2021/10/08 07:12:48;;;;;;;22.25;9.78;;;;;;;10.57;79.43;101543.21;1655003;85;21892;-63
2021/10/08 07:15:20;;;;;;;14.45;7.87;;;;;;;10.33;79.60;101544.48;1652822;85;21483;-63
2021/10/08 07:17:58;;;;;;;17.90;8.85;;;;;;;10.33;79.60;101544.48;1663105;85;20989;-63
2021/10/08 07:20:27;;;;;;;19.25;10.15;;;;;;;10.15;79.37;101551.72;1650986;85;20913;-64
2021/10/08 07:22:56;;;;;;;14.33;8.75;;;;;;;10.06;79.66;101555.34;1654293;85;20992;-62
2021/10/08 07:25:26;;;;;;;19.92;9.98;;;;;;;10.02;78.89;101548.43;1638163;86;21659;-63
2021/10/08 07:27:54;;;;;;;14.93;8.88;;;;;;;9.99;78.86;101548.48;1658421;85;20921;-64
2021/10/08 07:30:21;;;;;;;;;;;;;;;9.94;78.86;101552.05;1640592;86;20942;-63
2021/10/08 07:32:48;;;;;;;20.02;11.25;;;;;;;9.88;78.43;101542.56;1658831;85;20156;-63
2021/10/08 07:35:16;;;;;;;30.00;12.90;;;;;;;9.90;78.86;101553.85;1631107;87;21069;-63
2021/10/08 07:37:43;;;;;;;27.40;11.57;;;;;;;9.96;78.92;101559.42;1659710;85;21721;-63
2021/10/08 07:40:12;;;;;;;33.55;14.83;;;;;;;10.04;78.34;101554.49;1634611;86;21017;-63
2021/10/08 07:42:45;;;;;;;19.98;10.55;;;;;;;10.11;78.48;101559.61;1656776;85;20959;-63
2021/10/08 07:45:32;;;;;;;17.98;9.25;;;;;;;10.18;78.07;101558.64;1628330;87;21469;-63
2021/10/08 07:48:30;;;;;;;23.73;9.08;;;;;;;10.21;78.22;101559.44;1656358;85;21114;-63
2021/10/08 07:51:00;;;;;;;14.70;9.53;;;;;;;10.29;77.76;101559.36;1635041;86;21909;-63
2021/10/08 07:54:03;;;;;;;16.20;9.05;;;;;;;10.30;77.42;101558.45;1635089;86;20946;-63
2021/10/08 07:56:17;;;;;;;18.95;9.73;;;;;;;10.35;77.58;101571.00;1622946;86;20889;-63
2021/10/08 07:58:43;;;;;;;19.83;8.83;;;;;;;10.43;77.40;101576.95;1655847;85;21456;-62
2021/10/08 08:01:10;;;;;;;16.30;8.95;;;;;;;10.49;77.05;101584.67;1637733;87;20978;-64
2021/10/08 08:03:36;;;;;;;18.53;8.93;;;;;;;10.55;77.01;101576.33;1642688;86;21586;-62
2021/10/08 08:06:03;;;;;;;18.40;8.13;;;;;;;10.67;76.99;101582.63;1635814;87;21171;-62
2021/10/08 08:08:30;;;;;;;22.17;8.30;;;;;;;10.75;76.48;101582.05;1624311;87;20942;-62
2021/10/08 08:10:56;;;;;;;16.47;8.53;;;;;;;10.84;77.01;101589.73;1638041;87;20994;-62
2021/10/08 08:13:23;;;;;;;13.90;8.63;;;;;;;10.93;76.71;101590.86;1637758;87;21351;-62
2021/10/08 08:15:51;;;;;;;15.32;8.93;;;;;;;11.04;76.64;101583.27;1629069;86;21733;-63
2021/10/08 08:18:18;;;;;;;20.25;8.83;;;;;;;11.16;76.42;101590.86;1673324;84;20925;-63
2021/10/08 08:20:45;;;;;;;21.20;9.18;;;;;;;11.23;76.45;101588.55;1641970;85;20926;-63
2021/10/08 08:23:12;;;;;;;14.73;8.85;;;;;;;11.29;75.63;101593.65;1632777;87;20946;-63
2021/10/08 08:25:39;;;;;;;16.77;8.55;;;;;;;11.27;75.90;101599.34;1653486;85;21966;-63
2021/10/08 08:28:05;;;;;;;13.60;8.00;;;;;;;11.34;75.81;101606.61;1659725;85;21864;-62
2021/10/08 08:30:37;;;;;;;17.37;8.85;;;;;;;11.41;75.45;101613.00;1666734;85;20891;-61
2021/10/08 08:33:01;;;;;;;18.07;9.45;;;;;;;11.40;74.90;101617.83;1657986;85;21457;-62
2021/10/08 08:35:28;;;;;;;16.30;9.50;;;;;;;11.40;74.97;101618.28;1639336;85;20997;-63
2021/10/08 08:37:54;;;;;;;13.18;8.35;;;;;;;11.47;75.38;101616.39;1665203;84;20981;-62
2021/10/08 08:40:22;;;;;;;16.93;8.83;;;;;;;11.56;75.15;101618.80;1669240;84;21065;-62
2021/10/08 08:42:53;;;;;;;14.95;8.53;;;;;;;11.68;75.45;101623.80;1668667;84;20965;-61
2021/10/08 08:45:21;;;;;;;17.67;8.70;;;;;;;11.76;74.90;101620.98;1658642;85;21335;-62
2021/10/08 08:48:08;;;;;;;;;;;;;;;11.77;74.21;101620.11;1670922;85;20950;-62
2021/10/08 08:50:38;;;;;;;;;;;;;;;11.71;73.21;101621.11;1663019;85;20163;-62
2021/10/08 08:53:05;;;;;;;19.32;8.08;;;;;;;11.70;73.72;101618.52;1662560;85;21306;-61
2021/10/08 08:55:32;;;;;;;16.75;7.95;;;;;;;11.72;73.80;101622.82;1660413;85;20931;-62
2021/10/08 08:57:59;;;;;;;16.87;7.40;;;;;;;11.74;73.78;101620.19;1667356;85;20986;-62
2021/10/08 09:00:27;;;;;;;19.87;7.28;;;;;;;11.79;73.19;101617.88;1666350;85;21444;-62
2021/10/08 09:03:03;;;;;;;24.67;8.55;;;;;;;11.85;73.43;101613.84;1668274;85;21502;-62
2021/10/08 09:05:36;;;;;;;16.82;7.83;;;;;;;11.92;73.55;101618.94;1652000;85;21033;-61
2021/10/08 09:08:07;;;;;;;20.65;7.53;;;;;;;12.03;73.79;101615.63;1630805;86;20937;-62
2021/10/08 09:10:48;;;;;;;11.75;7.58;;;;;;;12.15;73.69;101614.02;1634526;86;21498;-62
2021/10/08 09:13:17;;;;;;;15.55;8.10;;;;;;;12.24;73.68;101616.44;1656476;85;20970;-60
2021/10/08 09:15:57;;;;;;;18.20;8.05;;;;;;;12.33;73.25;101615.81;1663440;84;21029;-62
2021/10/08 09:18:30;;;;;;;12.63;7.12;;;;;;;12.42;73.29;101609.02;1653671;85;21144;-61
2021/10/08 09:21:08;;;;;;;16.05;7.75;;;;;;;12.42;72.95;101615.58;1654615;86;20946;-61
2021/10/08 09:23:46;;;;;;;12.33;7.25;;;;;;;12.39;72.19;101609.10;1642169;86;20962;-61
2021/10/08 09:26:25;;;;;;;20.62;7.62;;;;;;;12.40;72.28;101608.19;1635466;86;21013;-62
2021/10/08 09:29:01;;;;;;;13.65;6.37;;;;;;;12.31;71.41;101603.59;1633183;86;20990;-61
2021/10/08 09:31:39;;;;;;;17.12;6.50;;;;;;;12.19;70.79;101597.35;1651865;85;21653;-61
2021/10/08 09:34:21;;;;;;;11.18;6.22;;;;;;;11.92;69.98;101584.45;1652817;85;20990;-62
2021/10/08 09:37:03;;;;;;;17.75;6.30;;;;;;;11.92;69.98;101584.45;1637788;86;21414;-62
2021/10/08 09:39:33;;;;;;;10.60;5.50;;;;;;;12.00;68.27;101609.16;1651486;85;20974;-62
2021/10/08 09:42:11;;;;;;;9.65;5.28;;;;;;;11.96;68.50;101604.87;1653392;85;20921;-61
2021/10/08 09:44:45;;;;;;;12.35;6.00;;;;;;;11.96;68.82;101600.94;1668031;84;21311;-62
2021/10/08 09:47:21;;;;;;;15.48;5.58;;;;;;;11.92;67.74;101603.23;1662999;84;20994;-62
2021/10/08 09:49:53;;;;;;;18.90;6.62;;;;;;;11.93;68.06;101603.20;1667718;84;21132;-62
2021/10/08 09:52:30;;;;;;;9.88;5.58;;;;;;;11.99;68.79;101606.14;1666488;84;20978;-62
2021/10/08 09:55:00;;;;;;;;;;;;;;;12.09;68.92;101601.08;1665829;84;21002;-62
2021/10/08 09:57:27;;;;;;;14.63;6.37;;;;;;;12.17;68.62;101608.30;1648537;85;21113;-62
2021/10/08 09:59:55;;;;;;;10.13;5.05;;;;;;;12.20;68.33;101608.23;1658657;85;21048;-62
2021/10/08 10:02:23;;;;;;;10.95;5.42;;;;;;;12.16;67.77;101605.28;1638844;86;21044;-62
2021/10/08 10:04:56;;;;;;;14.78;6.28;;;;;;;12.09;66.99;101608.47;1668087;84;28041;-61
2021/10/08 10:07:24;;;;;;;10.18;6.22;;;;;;;12.08;67.40;101608.53;1665116;84;20981;-62
2021/10/08 10:09:51;;;;;;;12.82;5.87;;;;;;;12.04;66.65;101612.09;1665806;84;21296;-62
2021/10/08 10:12:20;;;;;;;11.80;5.00;;;;;;;12.06;67.03;101606.39;1668107;84;20938;-62
2021/10/08 10:14:49;;;;;;;5.95;4.70;;;;;;;12.11;66.98;101613.69;1657847;85;20993;-62
2021/10/08 10:17:17;;;;;;;13.75;5.80;;;;;;;12.19;66.55;101610.45;1642078;86;21034;-62
2021/10/08 10:19:46;;;;;;;10.28;5.15;;;;;;;12.20;66.96;101605.61;1649024;85;21534;-62
2021/10/08 10:22:17;;;;;;;9.50;5.72;;;;;;;12.19;67.11;101593.88;1648991;85;21065;-62
2021/10/08 10:24:48;;;;;;;9.65;4.85;;;;;;;12.39;66.79;101607.80;1629231;86;21481;-61
2021/10/08 10:27:17;;;;;;;13.22;5.55;;;;;;;12.40;66.70;101605.57;1622557;86;21488;-61
2021/10/08 10:29:46;;;;;;;12.15;5.25;;;;;;;12.41;66.78;101607.31;1644311;86;20976;-62
2021/10/08 10:32:14;;;;;;;12.37;5.00;;;;;;;12.47;66.99;101607.16;1646936;86;20965;-61
2021/10/08 10:34:43;;;;;;;9.80;5.97;;;;;;;12.55;66.66;101594.72;1648326;86;21143;-61
2021/10/08 10:37:10;;;;;;;11.65;4.70;;;;;;;12.58;66.56;101602.50;1641734;85;20969;-61
2021/10/08 10:39:38;;;;;;;11.55;4.53;;;;;;;12.52;66.07;101603.52;1649386;86;21039;-62
2021/10/08 10:42:16;;;;;;;12.40;4.65;;;;;;;12.52;66.07;101603.52;1648302;86;21033;-62
2021/10/08 10:45:14;;;;;;;9.98;4.45;;;;;;;12.56;65.46;101597.74;1644663;85;21433;-62
2021/10/08 10:47:41;;;;;;;9.75;4.60;;;;;;;12.55;65.55;101603.89;1629640;86;21226;-62
2021/10/08 10:50:39;;;;;;;12.18;6.03;;;;;;;12.63;65.64;101597.13;1602799;88;20982;-62
2021/10/08 10:52:59;;;;;;;14.13;4.80;;;;;;;12.69;65.55;101608.33;1627720;86;21001;-62
2021/10/08 10:55:29;;;;;;;10.90;4.87;;;;;;;12.64;64.99;101584.00;1627867;87;21500;-62
2021/10/08 10:58:03;;;;;;;9.48;4.40;;;;;;;12.64;64.99;101584.00;1624525;87;20937;-61
2021/10/08 11:00:34;;;;;;;10.03;5.12;;;;;;;12.57;63.86;101577.17;1649115;85;21148;-63
2021/10/08 11:03:15;;;;;;;8.55;5.05;;;;;;;12.57;63.86;101577.17;1647094;86;20982;-63
2021/10/08 11:06:06;;;;;;;11.22;4.72;;;;;;;12.61;63.40;101599.80;1645472;86;20974;-61
2021/10/08 11:08:33;;;;;;;10.63;4.50;;;;;;;12.67;64.61;101599.64;1646211;86;21089;-63
2021/10/08 11:11:08;;;;;;;11.90;4.80;;;;;;;12.80;64.63;101596.68;1641414;86;21005;-62
2021/10/08 11:13:36;;;;;;;9.33;4.33;;;;;;;12.86;64.55;101601.78;1646988;85;21068;-63
2021/10/08 11:16:09;;;;;;;9.20;4.45;;;;;;;12.96;64.22;101597.99;1648807;86;21007;-62
2021/10/08 11:18:44;;;;;;;9.38;4.15;;;;;;;13.00;64.34;101599.64;1654548;85;21064;-63
2021/10/08 11:21:32;;;;;;;17.98;4.55;;;;;;;13.02;64.18;101597.82;1655139;85;20941;-63
2021/10/08 11:24:21;;;;;;;11.00;4.00;;;;;;;13.06;63.85;101596.00;1662094;85;21001;-62
2021/10/08 11:26:54;;;;;;;13.40;4.60;;;;;;;13.10;63.86;101601.55;1632533;86;21227;-62
2021/10/08 11:29:21;;;;;;;11.83;4.53;;;;;;;13.08;63.73;101592.43;1666908;85;21497;-62
2021/10/08 11:32:06;;;;;;;10.35;4.17;;;;;;;13.11;63.97;101594.97;1643199;86;20966;-63